createdAt,value
2019-05-09T00:01:15.873Z,52.35
2019-05-09T00:03:45.506Z,52.38
2019-05-09T00:06:15.019Z,52.34
2019-05-09T00:08:44.554Z,52.41
2019-05-09T00:11:14.748Z,52.40
2019-05-09T00:13:44.711Z,52.41
2019-05-09T00:16:14.653Z,52.38
2019-05-09T00:18:44.480Z,52.38
2019-05-09T00:21:15.503Z,52.38
2019-05-09T00:23:44.963Z,52.38
2019-05-09T00:26:14.456Z,52.37
2019-05-09T00:28:45.512Z,52.39
2019-05-09T00:31:16.565Z,52.37
2019-05-09T00:33:48.151Z,52.38
2019-05-09T00:36:18.338Z,52.39
2019-05-09T00:38:47.756Z,52.34
2019-05-09T00:41:17.208Z,52.39
2019-05-09T00:43:50.898Z,52.41
2019-05-09T00:46:23.663Z,52.39
2019-05-09T00:48:54.941Z,52.41
2019-05-09T00:51:24.608Z,52.38
2019-05-09T00:53:54.189Z,52.45
2019-05-09T00:56:24.080Z,52.39
2019-05-09T00:58:53.933Z,52.38
2019-05-09T01:01:24.145Z,52.37
2019-05-09T01:03:54.186Z,52.33
2019-05-09T01:06:24.156Z,52.37
2019-05-09T01:08:54.059Z,52.36
2019-05-09T01:11:24.234Z,52.43
2019-05-09T01:13:54.674Z,52.47
2019-05-09T01:16:24.448Z,52.49
2019-05-09T01:18:54.750Z,52.48
2019-05-09T01:21:24.337Z,52.50
2019-05-09T01:23:54.295Z,52.47
2019-05-09T01:26:24.343Z,52.48
2019-05-09T01:28:54.389Z,52.48
2019-05-09T01:31:24.476Z,52.49
2019-05-09T01:33:58.764Z,52.46
2019-05-09T01:36:30.030Z,52.43
2019-05-09T01:38:59.653Z,52.46
2019-05-09T01:41:33.410Z,52.42
2019-05-09T01:44:00.482Z,52.44
2019-05-09T01:46:29.867Z,52.34
2019-05-09T01:48:59.347Z,52.42
2019-05-09T01:51:28.926Z,52.45
2019-05-09T01:53:58.495Z,52.40
2019-05-09T01:56:27.917Z,52.42
2019-05-09T01:58:57.618Z,52.39
2019-05-09T02:01:27.253Z,52.39
2019-05-09T02:03:58.229Z,52.42
2019-05-09T02:06:28.373Z,52.36
2019-05-09T02:08:57.833Z,52.36
2019-05-09T02:11:39.465Z,52.37
2019-05-09T02:13:58.560Z,52.34
2019-05-09T02:16:36.519Z,52.32
2019-05-09T02:19:13.699Z,52.33
2019-05-09T02:21:43.817Z,52.33
2019-05-09T02:24:14.228Z,52.31
2019-05-09T02:26:44.021Z,52.25
2019-05-09T02:29:13.961Z,52.30
2019-05-09T02:31:44.739Z,52.29
2019-05-09T02:34:15.193Z,52.33
2019-05-09T02:36:45.066Z,52.23
2019-05-09T02:39:14.586Z,52.28
2019-05-09T02:41:59.653Z,52.29
2019-05-09T02:44:15.393Z,52.27
2019-05-09T02:46:49.365Z,52.27
2019-05-09T02:49:19.278Z,52.28
2019-05-09T02:51:49.018Z,52.23
2019-05-09T02:54:19.243Z,52.23
2019-05-09T02:56:49.484Z,52.29
2019-05-09T02:59:29.679Z,52.25
2019-05-09T03:02:09.615Z,52.25
2019-05-09T03:04:39.624Z,52.19
2019-05-09T03:07:09.897Z,52.27
2019-05-09T03:09:39.561Z,52.22
2019-05-09T03:12:22.991Z,52.25
2019-05-09T03:14:40.267Z,52.26
2019-05-09T03:17:09.880Z,52.27
2019-05-09T03:19:39.242Z,52.27
2019-05-09T03:22:19.265Z,52.26
2019-05-09T03:24:48.975Z,52.22
2019-05-09T03:27:20.084Z,52.19
2019-05-09T03:29:51.189Z,52.23
2019-05-09T03:32:20.709Z,52.22
2019-05-09T03:34:50.637Z,52.18
2019-05-09T03:37:20.533Z,52.21
2019-05-09T03:39:50.221Z,52.22
2019-05-09T03:42:23.082Z,52.21
2019-05-09T03:44:52.042Z,52.22
2019-05-09T03:47:27.605Z,52.24
2019-05-09T03:50:17.463Z,52.24
2019-05-09T03:52:47.892Z,52.23
2019-05-09T03:55:19.670Z,52.27
2019-05-09T03:57:51.370Z,52.25
2019-05-09T04:00:21.887Z,52.25
2019-05-09T04:02:52.290Z,52.24
2019-05-09T04:05:22.875Z,52.26
2019-05-09T04:07:53.590Z,52.23
2019-05-09T04:10:23.978Z,52.25
2019-05-09T04:12:57.184Z,52.23
2019-05-09T04:15:27.512Z,52.22
2019-05-09T04:17:57.987Z,52.25
2019-05-09T04:20:28.648Z,52.23
2019-05-09T04:22:59.545Z,52.27
2019-05-09T04:25:31.444Z,52.23
2019-05-09T04:28:03.174Z,52.19
2019-05-09T04:30:33.768Z,52.22
2019-05-09T04:33:04.135Z,52.22
2019-05-09T04:35:34.679Z,52.22
2019-05-09T04:38:07.343Z,52.19
2019-05-09T04:40:44.591Z,52.18
2019-05-09T04:43:15.547Z,52.19
2019-05-09T04:45:42.766Z,52.19
2019-05-09T04:48:33.020Z,52.17
2019-05-09T04:51:07.626Z,52.22
2019-05-09T04:53:39.775Z,52.17
2019-05-09T04:56:20.402Z,52.22
2019-05-09T04:58:50.481Z,52.23
2019-05-09T05:01:22.190Z,52.23
2019-05-09T05:03:54.057Z,52.24
2019-05-09T05:06:24.573Z,52.23
2019-05-09T05:08:55.113Z,52.22
2019-05-09T05:11:27.859Z,52.22
2019-05-09T05:13:58.607Z,52.22
2019-05-09T05:16:29.284Z,52.20
2019-05-09T05:18:59.484Z,52.19
2019-05-09T05:21:29.996Z,52.99
2019-05-09T05:24:02.321Z,52.97
2019-05-09T05:26:32.305Z,53.04
2019-05-09T05:29:03.045Z,52.96
2019-05-09T05:31:33.162Z,52.88
2019-05-09T05:34:05.257Z,52.77
2019-05-09T05:36:44.877Z,52.65
2019-05-09T05:39:15.082Z,52.62
2019-05-09T05:41:45.631Z,52.55
2019-05-09T05:44:17.716Z,52.87
2019-05-09T05:49:20.015Z,53.08
2019-05-09T05:51:50.520Z,53.02
2019-05-09T05:54:21.648Z,53.05
2019-05-09T05:56:51.792Z,53.47
2019-05-09T05:59:21.881Z,53.47
2019-05-09T06:01:51.999Z,53.42
2019-05-09T06:04:21.813Z,53.76
2019-05-09T06:06:51.865Z,53.67
2019-05-09T06:09:22.068Z,53.96
2019-05-09T06:11:51.872Z,53.73
2019-05-09T06:14:22.271Z,53.73
2019-05-09T06:16:52.706Z,53.81
2019-05-09T06:19:23.136Z,53.94
2019-05-09T06:21:53.278Z,53.93
2019-05-09T06:24:23.602Z,53.86
2019-05-09T06:26:54.063Z,53.80
2019-05-09T06:29:24.520Z,53.91
2019-05-09T06:31:58.273Z,53.91
2019-05-09T06:34:28.197Z,53.90
2019-05-09T06:36:58.812Z,53.83
2019-05-09T06:39:30.027Z,53.79
2019-05-09T06:42:00.250Z,53.84
2019-05-09T06:44:44.711Z,53.77
2019-05-09T06:47:19.506Z,53.75
2019-05-09T06:49:51.341Z,53.71
2019-05-09T06:52:21.472Z,53.68
2019-05-09T06:54:51.990Z,53.63
2019-05-09T06:57:22.677Z,53.64
2019-05-09T06:59:53.689Z,53.64
2019-05-09T07:02:31.319Z,53.76
2019-05-09T07:05:03.108Z,53.78
2019-05-09T07:07:45.560Z,53.98
2019-05-09T07:10:14.884Z,54.21
2019-05-09T07:12:45.123Z,54.36
2019-05-09T07:15:17.633Z,54.46
2019-05-09T07:17:48.167Z,54.40
2019-05-09T07:20:18.613Z,54.48
2019-05-09T07:22:50.847Z,54.56
2019-05-09T07:25:22.655Z,54.62
2019-05-09T07:27:53.732Z,54.62
2019-05-09T07:30:25.695Z,54.85
2019-05-09T07:33:14.013Z,54.91
2019-05-09T07:35:44.301Z,54.95
2019-05-09T07:38:14.492Z,55.06
2019-05-09T07:40:44.839Z,55.84
2019-05-09T07:43:14.588Z,55.95
2019-05-09T07:46:02.599Z,55.72
2019-05-09T07:48:32.706Z,55.90
2019-05-09T07:51:03.546Z,55.36
2019-05-09T07:53:34.181Z,55.29
2019-05-09T07:56:04.406Z,55.07
2019-05-09T07:58:37.510Z,55.00
2019-05-09T08:01:08.624Z,54.86
2019-05-09T15:00:51.545Z,52.85
2019-05-09T15:03:22.178Z,53.33
2019-05-09T15:05:52.551Z,57.18
2019-05-09T15:08:22.643Z,55.91
2019-05-09T15:10:52.934Z,50.53
2019-05-09T15:13:22.668Z,49.16
2019-05-09T15:15:53.355Z,52.40
2019-05-09T15:18:23.874Z,49.11
2019-05-09T15:20:53.938Z,47.79
2019-05-09T15:23:24.748Z,46.75
2019-05-09T15:35:09.055Z,55.96
2019-05-09T15:37:39.684Z,58.22
2019-05-09T15:40:10.210Z,60.32
2019-05-09T15:42:40.845Z,61.88
2019-05-09T15:45:11.467Z,64.70
2019-05-09T15:47:41.842Z,67.61
2019-05-09T15:50:20.080Z,69.83
2019-05-09T15:52:44.544Z,72.16
2019-05-09T15:55:17.553Z,73.18
2019-05-09T15:57:48.573Z,74.57
2019-05-09T16:00:19.344Z,76.25
2019-05-09T16:02:49.982Z,76.69
2019-05-09T16:05:20.494Z,78.12
2019-05-09T16:07:50.660Z,78.17
2019-05-09T16:10:21.098Z,78.87
2019-05-09T16:12:53.908Z,79.75
2019-05-09T16:15:24.383Z,79.01
2019-05-09T16:17:54.740Z,78.92
2019-05-09T16:20:36.848Z,78.93
2019-05-09T16:22:57.395Z,78.56
2019-05-09T16:25:28.269Z,78.69
2019-05-09T16:27:58.812Z,79.09
2019-05-09T16:41:09.008Z,78.89
2019-05-09T16:43:39.694Z,79.96
2019-05-09T16:46:10.529Z,79.01
2019-05-09T16:48:40.707Z,78.58
2019-05-09T16:51:11.225Z,78.76
2019-05-09T16:53:41.692Z,79.69
2019-05-09T16:56:11.757Z,78.65
2019-05-09T16:58:42.420Z,78.83
2019-05-09T17:01:12.568Z,79.70
2019-05-09T17:03:42.896Z,79.38
2019-05-09T17:06:13.023Z,79.92
2019-05-09T17:08:43.192Z,79.57
2019-05-09T17:11:13.758Z,79.81
2019-05-09T17:13:44.349Z,80.81
2019-05-09T17:16:14.829Z,80.44
2019-05-09T17:18:45.018Z,81.86
2019-05-09T17:21:28.527Z,80.56
2019-05-09T17:24:48.357Z,79.96
2019-05-09T17:27:19.097Z,79.66
2019-05-09T17:29:49.711Z,80.04
2019-05-09T17:32:20.398Z,80.46
2019-05-09T17:34:50.812Z,80.45
2019-05-09T17:37:21.529Z,81.40
2019-05-09T17:39:51.834Z,81.52
2019-05-09T17:42:22.159Z,81.58
2019-05-09T17:44:52.639Z,81.52
2019-05-09T17:47:23.230Z,82.03
2019-05-09T17:49:53.231Z,81.31
2019-05-09T17:52:23.185Z,81.75
2019-05-09T17:54:53.186Z,81.99
2019-05-09T17:57:23.281Z,81.73
2019-05-09T17:59:53.527Z,81.33
2019-05-09T18:02:23.918Z,81.28
2019-05-09T18:04:54.609Z,82.14
2019-05-09T18:07:24.966Z,81.37
2019-05-09T18:09:57.893Z,80.66
2019-05-09T18:12:27.830Z,80.94
2019-05-09T18:14:58.346Z,81.72
2019-05-09T18:17:28.798Z,81.31
2019-05-09T18:19:59.212Z,81.20
2019-05-09T18:22:29.647Z,81.47
2019-05-09T18:24:59.961Z,82.52
2019-05-09T18:27:30.078Z,82.13
2019-05-09T18:30:00.255Z,82.13
2019-05-09T18:32:48.228Z,82.58
2019-05-09T18:35:22.850Z,83.09
2019-05-09T18:37:53.027Z,82.46
2019-05-09T18:40:23.166Z,83.28
2019-05-09T18:42:53.068Z,83.88
2019-05-09T18:45:23.225Z,83.85
2019-05-09T18:47:53.332Z,84.76
2019-05-09T18:50:23.244Z,86.25
2019-05-09T18:52:53.230Z,87.24
2019-05-09T18:55:23.219Z,86.68
2019-05-09T18:57:53.256Z,86.05
2019-05-09T19:00:24.377Z,86.01
2019-05-09T19:02:54.366Z,86.33
2019-05-09T19:05:24.462Z,85.63
2019-05-09T19:07:54.453Z,86.06
2019-05-09T19:10:24.562Z,85.84
2019-05-09T19:12:54.699Z,86.07
2019-05-09T19:15:26.524Z,85.65
2019-05-09T19:18:10.042Z,86.16
2019-05-09T19:20:39.449Z,86.24
2019-05-09T19:23:09.212Z,86.39
2019-05-09T19:25:38.739Z,85.86
2019-05-09T19:28:08.631Z,85.12
2019-05-09T19:30:38.235Z,85.16
2019-05-09T19:33:07.767Z,84.31
2019-05-09T19:35:37.229Z,84.60
2019-05-09T19:38:06.941Z,84.64
2019-05-09T19:40:36.445Z,83.93
2019-05-09T19:43:05.912Z,84.11
2019-05-09T19:45:35.460Z,83.50
2019-05-09T19:48:04.987Z,83.83
2019-05-09T19:50:34.534Z,83.86
2019-05-09T19:53:04.024Z,83.34
2019-05-09T19:55:33.544Z,83.28
2019-05-09T19:58:02.955Z,83.24
2019-05-09T20:00:32.368Z,83.72
2019-05-09T20:03:01.799Z,83.78
2019-05-09T20:05:31.319Z,83.95
2019-05-09T20:08:00.789Z,83.97
2019-05-09T20:10:30.105Z,83.86
2019-05-09T20:13:20.776Z,84.13
2019-05-09T20:15:50.239Z,84.06
2019-05-09T20:18:19.689Z,84.06
2019-05-09T20:20:49.230Z,84.12
2019-05-09T20:23:18.660Z,84.34
2019-05-09T20:25:48.205Z,84.09
2019-05-09T20:28:17.596Z,84.41
2019-05-09T20:30:47.295Z,84.60
2019-05-09T20:33:16.973Z,85.11
2019-05-09T20:35:46.468Z,85.40
2019-05-09T20:38:16.267Z,85.87
2019-05-09T20:40:47.539Z,86.15
2019-05-09T20:43:17.190Z,86.13
2019-05-09T20:45:46.872Z,86.08
2019-05-09T20:48:16.407Z,86.36
2019-05-09T20:50:46.154Z,86.21
2019-05-09T20:53:15.696Z,86.41
2019-05-09T20:55:45.201Z,86.33
2019-05-09T20:58:14.834Z,86.44
2019-05-09T21:00:44.433Z,86.63
2019-05-09T21:03:14.067Z,86.37
2019-05-09T21:05:43.674Z,86.53
2019-05-09T21:08:13.306Z,86.46
2019-05-09T21:10:43.005Z,86.66
2019-05-09T21:13:12.561Z,87.14
2019-05-09T21:15:42.253Z,87.63
2019-05-09T21:18:12.178Z,87.76
2019-05-09T21:20:41.841Z,88.01
2019-05-09T21:23:23.845Z,88.36
2019-05-09T21:25:43.379Z,88.49
2019-05-09T21:28:14.601Z,88.75
2019-05-09T21:30:45.164Z,88.69
2019-05-09T21:33:14.721Z,88.78
2019-05-09T21:35:44.379Z,88.96
2019-05-09T21:38:13.883Z,89.07
2019-05-09T21:40:43.854Z,89.22
2019-05-09T21:43:13.317Z,89.23
2019-05-09T21:45:43.049Z,89.16
2019-05-09T21:48:12.399Z,88.88
2019-05-09T21:50:41.759Z,88.97
2019-05-09T21:53:11.278Z,88.73
2019-05-09T21:55:40.802Z,88.62
2019-05-09T21:58:10.206Z,88.51
2019-05-09T22:00:40.469Z,88.51
2019-05-09T22:03:10.471Z,88.58
2019-05-09T22:05:39.926Z,88.67
2019-05-09T22:08:09.366Z,88.50
2019-05-09T22:10:38.818Z,88.59
2019-05-09T22:13:08.391Z,88.84
2019-05-09T22:15:37.828Z,88.99
2019-05-09T22:18:07.375Z,89.19
2019-05-09T22:20:36.796Z,89.29
2019-05-09T22:23:06.724Z,89.33
2019-05-09T22:25:36.414Z,89.43
2019-05-09T22:28:05.958Z,89.32
2019-05-09T22:30:35.576Z,89.36
2019-05-09T22:33:05.046Z,89.34
2019-05-09T22:35:34.565Z,89.38
2019-05-09T22:38:04.023Z,89.24
2019-05-09T22:40:33.440Z,89.16
2019-05-09T22:43:02.912Z,89.16
2019-05-09T22:45:32.318Z,89.12
2019-05-09T22:48:01.707Z,89.20
2019-05-09T22:50:31.268Z,89.37
2019-05-09T22:53:00.758Z,89.50
2019-05-09T22:55:30.183Z,89.65
2019-05-09T22:57:59.634Z,89.76
2019-05-09T23:00:28.997Z,89.94
2019-05-09T23:02:58.399Z,89.96
2019-05-09T23:05:27.971Z,89.98
2019-05-09T23:07:57.471Z,89.97
2019-05-09T23:10:26.843Z,89.75
2019-05-09T23:12:56.215Z,89.63
2019-05-09T23:15:25.649Z,89.36
2019-05-09T23:17:55.079Z,89.20
2019-05-09T23:20:42.144Z,88.55
2019-05-09T23:23:29.172Z,88.35
2019-05-09T23:25:59.050Z,88.17
2019-05-09T23:28:28.855Z,88.25
2019-05-09T23:31:02.714Z,88.38
2019-05-09T23:33:33.901Z,88.25
2019-05-09T23:36:03.496Z,88.40
2019-05-09T23:38:32.913Z,88.28
2019-05-09T23:41:02.274Z,88.34
2019-05-09T23:43:31.719Z,88.28
2019-05-09T23:46:01.385Z,88.42
2019-05-09T23:48:30.779Z,88.40
2019-05-09T23:51:00.472Z,88.55
2019-05-09T23:53:32.896Z,88.67
2019-05-09T23:56:20.087Z,88.80
2019-05-09T23:59:06.762Z,89.01
